createdAt,value
2023-02-12T00:00:21.150Z,21.00
2023-02-12T00:03:23.907Z,18.90
2023-02-12T00:06:27.185Z,23.40
2023-02-12T00:09:29.999Z,21.75
2023-02-12T00:12:32.400Z,20.93
2023-02-12T00:15:35.583Z,20.30
2023-02-12T00:18:38.136Z,19.65
2023-02-12T00:21:40.619Z,21.77
2023-02-12T00:24:43.137Z,21.23
2023-02-12T00:27:45.750Z,21.40
2023-02-12T00:30:48.264Z,24.95
2023-02-12T00:33:51.134Z,22.65
2023-02-12T00:36:53.611Z,19.97
2023-02-12T00:39:56.048Z,19.37
2023-02-12T00:42:58.520Z,22.35
2023-02-12T00:46:01.499Z,23.27
2023-02-12T00:49:04.094Z,20.33
2023-02-12T00:52:06.519Z,18.90
2023-02-12T00:55:09.402Z,18.60
2023-02-12T00:58:12.192Z,20.85
2023-02-12T01:01:14.815Z,21.13
2023-02-12T01:04:18.161Z,18.97
2023-02-12T01:07:20.666Z,24.63
2023-02-12T01:10:23.492Z,22.05
2023-02-12T01:13:27.126Z,18.17
2023-02-12T01:16:31.810Z,17.87
2023-02-12T01:19:34.369Z,19.27
2023-02-12T01:22:37.950Z,19.98
2023-02-12T01:25:40.455Z,19.43
2023-02-12T01:28:45.493Z,20.60
2023-02-12T01:31:48.242Z,17.73
2023-02-12T01:34:51.161Z,20.25
2023-02-12T01:37:58.390Z,19.87
2023-02-12T01:41:10.494Z,20.10
2023-02-12T01:44:21.546Z,21.33
2023-02-12T01:47:23.914Z,18.15
2023-02-12T01:50:26.572Z,19.63
2023-02-12T01:53:35.023Z,17.30
2023-02-12T01:56:38.430Z,16.88
2023-02-12T01:59:44.714Z,17.08
2023-02-12T02:02:51.755Z,15.23
2023-02-12T02:06:07.554Z,15.40
2023-02-12T02:09:10.590Z,15.07
2023-02-12T02:12:31.542Z,13.95
2023-02-12T02:15:36.883Z,16.87
2023-02-12T02:18:50.866Z,14.57
2023-02-12T02:22:25.665Z,16.80
2023-02-12T02:25:28.141Z,18.85
2023-02-12T02:28:52.157Z,15.70
2023-02-12T02:32:18.439Z,15.50
2023-02-12T02:35:33.859Z,16.60
2023-02-12T02:39:02.715Z,14.88
2023-02-12T02:42:20.121Z,14.87
2023-02-12T02:45:27.982Z,18.27
2023-02-12T02:48:46.408Z,15.25
2023-02-12T02:51:54.852Z,15.25
2023-02-12T02:55:02.761Z,13.77
2023-02-12T02:58:17.137Z,12.80
2023-02-12T03:01:29.736Z,14.07
2023-02-12T03:04:40.798Z,12.45
2023-02-12T03:08:15.412Z,12.87
2023-02-12T03:11:22.468Z,13.87
2023-02-12T03:14:33.280Z,13.50
2023-02-12T03:17:40.794Z,13.05
2023-02-12T03:20:47.938Z,14.65
2023-02-12T03:23:58.465Z,14.40
2023-02-12T03:27:22.897Z,15.88
2023-02-12T03:30:39.392Z,14.27
2023-02-12T03:34:11.537Z,16.57
2023-02-12T03:37:40.712Z,15.45
2023-02-12T03:40:52.976Z,16.15
2023-02-12T03:44:26.371Z,18.88
2023-02-12T03:47:49.125Z,15.30
2023-02-12T03:51:03.589Z,16.58
2023-02-12T03:54:09.211Z,17.85
2023-02-12T03:57:17.280Z,17.17
2023-02-12T04:00:22.926Z,17.07
2023-02-12T04:03:26.508Z,18.42
2023-02-12T04:06:29.405Z,18.30
2023-02-12T04:09:32.372Z,17.52
2023-02-12T04:12:50.918Z,16.53
2023-02-12T04:15:53.523Z,20.38
2023-02-12T04:18:56.502Z,20.10
2023-02-12T04:22:17.155Z,20.15
2023-02-12T04:25:32.526Z,17.97
2023-02-12T04:28:49.384Z,16.73
2023-02-12T04:32:06.907Z,18.45
2023-02-12T04:35:24.621Z,18.85
2023-02-12T04:38:36.117Z,18.85
2023-02-12T04:41:39.744Z,20.25
2023-02-12T04:44:44.233Z,18.00
2023-02-12T04:47:47.125Z,23.50
2023-02-12T04:50:49.865Z,23.15
2023-02-12T04:53:52.358Z,22.85
2023-02-12T04:56:55.024Z,24.15
2023-02-12T04:59:58.022Z,22.40
2023-02-12T05:03:00.612Z,22.52
2023-02-12T05:06:09.977Z,24.13
2023-02-12T05:09:18.216Z,24.17
2023-02-12T05:12:20.711Z,23.13
2023-02-12T05:15:23.655Z,21.48
2023-02-12T05:18:26.359Z,22.08
2023-02-12T05:21:29.070Z,21.43
2023-02-12T05:24:31.556Z,21.60
2023-02-12T05:27:34.068Z,24.70
2023-02-12T05:30:36.760Z,23.90
2023-02-12T05:33:39.320Z,23.00
2023-02-12T05:36:41.765Z,25.00
2023-02-12T05:39:44.220Z,25.02
2023-02-12T05:42:46.732Z,22.65
2023-02-12T05:45:49.196Z,22.15
2023-02-12T05:48:51.660Z,25.65
2023-02-12T05:51:54.263Z,26.67
2023-02-12T05:54:56.697Z,28.35
2023-02-12T05:57:59.163Z,30.08
2023-02-12T06:01:02.012Z,27.83
2023-02-12T06:04:06.883Z,29.58
2023-02-12T06:07:09.329Z,29.75
2023-02-12T06:10:13.467Z,29.20
2023-02-12T06:13:15.865Z,28.20
2023-02-12T06:16:19.644Z,34.38
2023-02-12T06:19:22.347Z,34.13
2023-02-12T06:22:24.908Z,33.17
2023-02-12T06:25:27.368Z,37.33
2023-02-12T06:28:29.837Z,37.30
2023-02-12T06:31:35.274Z,38.60
2023-02-12T06:34:37.856Z,43.25
2023-02-12T06:37:40.371Z,40.13
2023-02-12T06:40:43.036Z,40.75
2023-02-12T06:43:45.534Z,39.27
2023-02-12T06:46:48.165Z,39.92
2023-02-12T06:49:50.796Z,36.15
2023-02-12T06:52:53.324Z,36.40
2023-02-12T06:55:55.973Z,31.77
2023-02-12T06:59:01.182Z,35.95
2023-02-12T07:02:03.756Z,28.55
2023-02-12T07:05:06.561Z,31.70
2023-02-12T07:08:09.341Z,25.50
2023-02-12T07:11:12.154Z,24.42
2023-02-12T07:14:16.626Z,23.20
2023-02-12T07:17:19.216Z,27.43
2023-02-12T07:20:21.738Z,26.80
2023-02-12T07:23:24.390Z,33.83
2023-02-12T07:26:26.944Z,34.20
2023-02-12T07:29:29.796Z,32.97
2023-02-12T07:32:34.152Z,33.57
2023-02-12T07:35:36.575Z,35.08
2023-02-12T07:38:42.531Z,33.47
2023-02-12T07:41:44.987Z,26.20
2023-02-12T07:44:48.643Z,29.60
2023-02-12T07:47:51.469Z,29.45
2023-02-12T07:50:54.016Z,20.05
2023-02-12T07:53:56.751Z,19.83
2023-02-12T07:57:00.691Z,23.07
2023-02-12T08:00:04.680Z,20.38
2023-02-12T08:03:14.771Z,20.02
2023-02-12T08:06:20.883Z,18.08
2023-02-12T08:09:26.624Z,17.40
2023-02-12T08:12:29.501Z,15.40
2023-02-12T08:15:32.099Z,13.07
2023-02-12T08:18:35.386Z,14.10
2023-02-12T08:21:37.863Z,13.82
2023-02-12T08:24:40.611Z,12.93
2023-02-12T08:27:43.145Z,14.13
2023-02-12T08:30:45.651Z,14.63
2023-02-12T08:33:49.860Z,16.30
2023-02-12T08:36:56.840Z,15.37
2023-02-12T08:39:59.272Z,17.65
2023-02-12T08:43:01.800Z,15.35
2023-02-12T08:46:06.574Z,15.73
2023-02-12T08:49:13.964Z,15.17
2023-02-12T08:52:17.193Z,16.47
2023-02-12T08:55:19.941Z,14.38
2023-02-12T08:58:22.514Z,14.05
2023-02-12T09:01:28.409Z,13.18
2023-02-12T09:04:31.350Z,11.70
2023-02-12T09:07:33.829Z,14.82
2023-02-12T09:10:40.919Z,14.70
2023-02-12T09:13:45.542Z,12.20
2023-02-12T09:16:47.954Z,12.23
2023-02-12T09:19:50.597Z,6.00
2023-02-12T09:22:54.057Z,3.83
2023-02-12T09:25:57.168Z,5.75
2023-02-12T09:29:02.967Z,6.75
2023-02-12T09:32:06.724Z,4.20
2023-02-12T09:35:10.074Z,3.97
2023-02-12T09:38:12.511Z,5.18
2023-02-12T09:41:35.977Z,4.20
2023-02-12T09:44:52.920Z,6.30
2023-02-12T09:48:15.385Z,6.17
2023-02-12T09:51:18.490Z,8.50
2023-02-12T09:54:25.894Z,5.88
2023-02-12T09:57:37.602Z,4.70
2023-02-12T10:00:40.251Z,3.83
2023-02-12T10:03:43.584Z,5.03
2023-02-12T10:06:56.486Z,4.27
2023-02-12T10:10:08.210Z,4.70
2023-02-12T10:13:40.733Z,5.28
2023-02-12T10:16:49.554Z,5.53
2023-02-12T10:20:41.607Z,6.00
2023-02-12T10:24:07.200Z,5.10
2023-02-12T10:27:15.241Z,5.15
2023-02-12T10:31:00.402Z,6.55
2023-02-12T10:34:15.056Z,5.75
2023-02-12T10:37:25.109Z,5.47
2023-02-12T10:40:32.822Z,5.63
2023-02-12T10:43:35.432Z,5.57
2023-02-12T10:46:39.089Z,5.45
2023-02-12T10:49:41.748Z,4.45
2023-02-12T10:52:50.562Z,4.40
2023-02-12T10:56:12.032Z,4.50
2023-02-12T10:59:24.040Z,3.60
2023-02-12T11:02:32.378Z,4.13
2023-02-12T11:05:37.396Z,4.47
2023-02-12T11:08:40.790Z,4.30
2023-02-12T11:11:43.545Z,4.37
2023-02-12T11:14:58.837Z,6.13
2023-02-12T11:18:05.511Z,4.63
2023-02-12T11:21:12.313Z,5.63
2023-02-12T11:24:30.209Z,4.97
2023-02-12T11:27:32.682Z,4.73
2023-02-12T11:30:36.714Z,5.43
2023-02-12T11:33:39.456Z,5.43
2023-02-12T11:36:45.913Z,5.75
2023-02-12T11:39:50.454Z,4.30
2023-02-12T11:42:57.507Z,4.67
2023-02-12T11:46:01.306Z,3.65
2023-02-12T11:49:06.214Z,5.82
2023-02-12T11:52:27.747Z,5.00
2023-02-12T11:55:34.025Z,4.53
2023-02-12T11:58:37.748Z,5.00
2023-02-12T12:01:41.862Z,4.55
2023-02-12T12:04:49.889Z,4.95
2023-02-12T12:07:57.785Z,4.32
2023-02-12T12:11:09.772Z,5.10
2023-02-12T12:14:29.721Z,8.87
2023-02-12T12:18:30.316Z,7.50
2023-02-12T12:21:51.563Z,8.10
2023-02-12T12:25:00.834Z,6.80
2023-02-12T12:28:09.443Z,6.47
2023-02-12T12:31:20.512Z,7.63
2023-02-12T12:34:25.285Z,7.57
2023-02-12T12:38:01.032Z,6.30
2023-02-12T12:41:26.585Z,7.90
2023-02-12T12:44:56.904Z,7.27
2023-02-12T12:48:25.855Z,7.33
2023-02-12T12:51:37.658Z,12.98
2023-02-12T12:55:18.653Z,18.92
2023-02-12T12:58:29.168Z,26.33
2023-02-12T13:01:57.069Z,19.93
2023-02-12T13:05:23.903Z,20.07
2023-02-12T13:08:47.990Z,19.95
2023-02-12T13:12:08.999Z,20.42
2023-02-12T13:15:25.478Z,22.95
2023-02-12T13:18:51.261Z,26.57
2023-02-12T13:22:06.816Z,24.00
2023-02-12T13:25:29.819Z,27.02
2023-02-12T13:28:45.100Z,31.17
2023-02-12T13:32:28.582Z,31.20
2023-02-12T13:35:35.268Z,28.87
2023-02-12T13:38:43.114Z,31.17
2023-02-12T13:41:58.954Z,35.13
2023-02-12T13:45:11.491Z,32.65
2023-02-12T13:48:33.250Z,33.90
2023-02-12T13:51:47.869Z,35.67
2023-02-12T13:55:06.522Z,33.27
2023-02-12T13:58:40.195Z,30.05
2023-02-12T14:01:47.530Z,32.67
2023-02-12T14:04:53.595Z,34.10
2023-02-12T14:08:05.270Z,33.90
2023-02-12T14:11:13.517Z,37.00
2023-02-12T14:14:33.307Z,34.97
2023-02-12T14:17:36.705Z,31.88
2023-02-12T14:20:40.214Z,38.67
2023-02-12T14:23:46.362Z,39.03
2023-02-12T14:26:48.926Z,37.97
2023-02-12T14:30:07.725Z,37.83
2023-02-12T14:33:20.572Z,42.58
2023-02-12T14:36:32.546Z,38.63
2023-02-12T14:39:35.442Z,39.97
2023-02-12T14:42:38.629Z,37.83
2023-02-12T14:45:41.324Z,36.42
2023-02-12T14:49:07.531Z,40.60
2023-02-12T14:52:13.479Z,32.63
2023-02-12T14:55:24.571Z,33.63
2023-02-12T14:58:31.091Z,33.37
2023-02-12T15:01:36.328Z,31.33
2023-02-12T15:04:45.130Z,31.27
2023-02-12T15:07:56.070Z,31.65
2023-02-12T15:11:17.091Z,31.87
2023-02-12T15:14:27.157Z,33.40
2023-02-12T15:17:35.245Z,36.05
2023-02-12T15:21:01.108Z,39.55
2023-02-12T15:24:14.430Z,33.53
2023-02-12T15:27:18.617Z,36.47
2023-02-12T15:30:28.245Z,37.83
2023-02-12T15:33:35.507Z,34.25
2023-02-12T15:36:38.271Z,38.28
2023-02-12T15:39:44.149Z,36.63
2023-02-12T15:42:57.028Z,43.10
2023-02-12T15:45:59.662Z,42.50
2023-02-12T15:49:18.607Z,44.70
2023-02-12T15:52:25.078Z,42.65
2023-02-12T15:55:33.462Z,37.38
2023-02-12T15:58:53.879Z,44.60
2023-02-12T16:02:03.548Z,42.60
2023-02-12T16:05:07.300Z,39.05
2023-02-12T16:08:16.169Z,39.45
2023-02-12T16:11:22.187Z,41.08
2023-02-12T16:14:39.549Z,46.67
2023-02-12T16:17:48.152Z,44.67
2023-02-12T16:21:04.209Z,49.97
2023-02-12T16:24:22.557Z,43.60
2023-02-12T16:27:34.377Z,43.03
2023-02-12T16:30:43.291Z,47.57
2023-02-12T16:33:49.731Z,46.10
2023-02-12T16:36:52.861Z,48.05
2023-02-12T16:40:00.475Z,52.35
2023-02-12T16:43:22.510Z,49.53
2023-02-12T16:46:26.104Z,49.80
2023-02-12T16:49:28.798Z,51.73
2023-02-12T16:52:41.354Z,55.28
2023-02-12T16:55:44.089Z,58.13
2023-02-12T16:58:49.924Z,56.63
2023-02-12T17:01:59.373Z,55.83
2023-02-12T17:05:05.643Z,60.85
2023-02-12T17:08:16.048Z,59.25
2023-02-12T17:11:20.058Z,70.60
2023-02-12T17:14:23.077Z,71.77
2023-02-12T17:17:25.805Z,79.00
2023-02-12T17:20:28.534Z,75.72
2023-02-12T17:23:31.630Z,89.90
2023-02-12T17:26:34.383Z,80.35
2023-02-12T17:29:37.657Z,63.10
2023-02-12T17:32:40.452Z,82.28
2023-02-12T17:35:42.937Z,80.90
2023-02-12T17:38:45.860Z,81.65
2023-02-12T17:41:48.675Z,82.83
2023-02-12T17:44:52.424Z,80.53
2023-02-12T17:47:55.353Z,77.65
2023-02-12T17:50:58.680Z,83.28
2023-02-12T17:54:01.398Z,79.93
2023-02-12T17:57:05.009Z,83.22
2023-02-12T18:00:10.070Z,85.75
2023-02-12T18:03:16.173Z,85.45
2023-02-12T18:06:25.013Z,85.27
2023-02-12T18:09:27.477Z,86.60
2023-02-12T18:12:31.180Z,83.10
2023-02-12T18:15:34.049Z,88.85
2023-02-12T18:18:40.141Z,87.77
2023-02-12T18:21:42.814Z,96.25
2023-02-12T18:24:45.795Z,91.15
2023-02-12T18:27:48.787Z,94.93
2023-02-12T18:30:58.799Z,94.27
2023-02-12T18:34:03.872Z,92.47
2023-02-12T18:37:06.611Z,92.03
2023-02-12T18:40:09.768Z,98.75
2023-02-12T18:43:12.432Z,96.90
2023-02-12T18:46:18.447Z,92.03
2023-02-12T18:49:20.998Z,104.03
2023-02-12T18:52:24.837Z,94.05
2023-02-12T18:55:27.645Z,96.87
2023-02-12T18:58:30.774Z,95.57
2023-02-12T19:01:35.451Z,98.10
2023-02-12T19:04:39.580Z,99.47
2023-02-12T19:07:42.888Z,102.47
2023-02-12T19:10:48.284Z,102.72
2023-02-12T19:13:51.440Z,106.05
2023-02-12T19:16:54.868Z,100.68
2023-02-12T19:19:57.728Z,101.20
2023-02-12T19:23:00.911Z,106.15
2023-02-12T19:26:08.890Z,104.10
2023-02-12T19:29:12.962Z,101.55
2023-02-12T19:32:16.652Z,108.30
2023-02-12T19:35:19.408Z,113.32
2023-02-12T19:38:22.863Z,104.20
2023-02-12T19:41:27.679Z,104.40
2023-02-12T19:44:30.444Z,101.27
2023-02-12T19:47:33.315Z,103.32
2023-02-12T19:50:36.111Z,115.18
2023-02-12T19:53:39.679Z,103.53
2023-02-12T19:56:42.692Z,107.57
2023-02-12T19:59:46.556Z,102.55
2023-02-12T20:02:50.381Z,111.38
2023-02-12T20:06:05.229Z,100.70
2023-02-12T20:09:08.672Z,100.68
2023-02-12T20:12:11.459Z,97.22
2023-02-12T20:15:14.352Z,96.70
2023-02-12T20:18:16.874Z,95.17
2023-02-12T20:21:25.705Z,94.32
2023-02-12T20:24:30.905Z,97.43
2023-02-12T20:27:34.341Z,97.32
2023-02-12T20:30:40.286Z,100.13
2023-02-12T20:33:43.760Z,104.78
2023-02-12T20:36:47.586Z,98.35
2023-02-12T20:39:50.757Z,115.37
2023-02-12T20:42:53.492Z,106.20
2023-02-12T20:49:06.269Z,91.32
2023-02-12T20:52:10.413Z,100.63
2023-02-12T20:55:13.070Z,98.57
2023-02-12T20:58:15.860Z,93.18
2023-02-12T21:01:21.962Z,95.65
2023-02-12T21:04:24.711Z,96.30
2023-02-12T21:07:27.418Z,95.07
2023-02-12T21:10:30.826Z,94.30
2023-02-12T21:13:34.197Z,97.63
2023-02-12T21:16:42.674Z,94.30
2023-02-12T21:19:45.444Z,91.55
2023-02-12T21:22:48.114Z,99.18
2023-02-12T21:25:58.390Z,95.70
2023-02-12T21:29:02.421Z,91.05
2023-02-12T21:32:05.222Z,93.80
2023-02-12T21:35:08.200Z,93.23
2023-02-12T21:38:12.100Z,91.68
2023-02-12T21:41:15.963Z,93.10
2023-02-12T21:44:20.334Z,77.38
2023-02-12T21:47:22.765Z,77.47
2023-02-12T21:50:25.543Z,76.85
2023-02-12T21:53:29.125Z,80.75
2023-02-12T21:56:32.376Z,82.57
2023-02-12T21:59:34.961Z,82.78
2023-02-12T22:02:37.409Z,90.82
2023-02-12T22:05:39.819Z,91.75
2023-02-12T22:08:42.305Z,87.28
2023-02-12T22:11:45.113Z,90.25
2023-02-12T22:14:49.140Z,79.05
2023-02-12T22:17:54.522Z,71.83
2023-02-12T22:21:00.993Z,75.38
2023-02-12T22:24:06.400Z,70.97
2023-02-12T22:27:08.829Z,72.25
2023-02-12T22:30:11.777Z,65.07
2023-02-12T22:33:14.284Z,61.50
2023-02-12T22:36:25.161Z,62.17
2023-02-12T22:39:29.798Z,63.20
2023-02-12T22:42:32.335Z,57.75
2023-02-12T22:45:34.758Z,61.00
2023-02-12T22:48:38.203Z,57.47
2023-02-12T22:51:41.382Z,65.88
2023-02-12T22:54:45.157Z,64.00
2023-02-12T22:57:47.606Z,57.55
2023-02-12T23:00:51.660Z,59.40
2023-02-12T23:03:54.930Z,59.00
2023-02-12T23:06:57.417Z,56.35
2023-02-12T23:09:59.798Z,53.00
2023-02-12T23:13:02.784Z,52.75
2023-02-12T23:16:05.544Z,51.70
2023-02-12T23:19:10.323Z,53.70
2023-02-12T23:22:13.143Z,54.13
2023-02-12T23:25:15.742Z,54.88
2023-02-12T23:28:18.209Z,52.00
2023-02-12T23:31:21.033Z,56.37
2023-02-12T23:34:23.705Z,48.95
2023-02-12T23:37:26.123Z,47.65
2023-02-12T23:40:28.667Z,52.13
2023-02-12T23:43:32.788Z,55.22
2023-02-12T23:46:35.385Z,49.65
2023-02-12T23:49:38.887Z,54.13
2023-02-12T23:52:41.824Z,48.13
2023-02-12T23:55:44.722Z,50.03
2023-02-12T23:58:47.620Z,47.00
